Hanover, Canada
Current Conditions -  °F | °C
As of 1:00 AM on Wednesday 28 Jan 2015 (Local Time) from CYVV Reporting Station
Clear Clear  
Wind Chill:   Ceiling: Unl
Heat Index: 16°   Visibility: 15mi
Dew Point:   Wind: 8mph
Humidity: 68%   Direction: 10°N
Pressure: 30.18"   Gusts: NA
Location:  44.15°N, 81.03°W
Report Text: CYVV 280600Z 01007KT 15SM SKC M09/M14 A3018 RMK SLP236
Loading
Personal Weather Stations






























Interactive Weather Map New forecast layout! Learn more

10-Day Weather Forecast

Advertisements
Track Severe Weather on mobile